sensor_id;sensor_type;location;lat;lon;timestamp;temperature;humidity
54202;DHT22;40108;53.152;5.844;2023-02-26T00:01:38;2.30;66.90
54202;DHT22;40108;53.152;5.844;2023-02-26T00:04:05;2.30;67.30
54202;DHT22;40108;53.152;5.844;2023-02-26T00:06:37;2.30;67.70
54202;DHT22;40108;53.152;5.844;2023-02-26T00:09:03;2.30;68.00
54202;DHT22;40108;53.152;5.844;2023-02-26T00:11:30;2.20;68.00
54202;DHT22;40108;53.152;5.844;2023-02-26T00:13:56;2.20;68.30
54202;DHT22;40108;53.152;5.844;2023-02-26T00:16:28;2.20;68.10
54202;DHT22;40108;53.152;5.844;2023-02-26T00:18:59;2.20;68.30
54202;DHT22;40108;53.152;5.844;2023-02-26T00:21:26;2.20;68.80
54202;DHT22;40108;53.152;5.844;2023-02-26T00:23:53;2.10;68.70
54202;DHT22;40108;53.152;5.844;2023-02-26T00:26:20;2.20;68.80
54202;DHT22;40108;53.152;5.844;2023-02-26T00:28:46;2.10;68.40
54202;DHT22;40108;53.152;5.844;2023-02-26T00:31:14;2.10;68.70
54202;DHT22;40108;53.152;5.844;2023-02-26T00:33:40;2.20;68.90
54202;DHT22;40108;53.152;5.844;2023-02-26T00:41:25;2.10;69.20
54202;DHT22;40108;53.152;5.844;2023-02-26T00:43:53;2.10;69.60
54202;DHT22;40108;53.152;5.844;2023-02-26T00:46:54;2.10;69.80
54202;DHT22;40108;53.152;5.844;2023-02-26T00:55:16;2.10;69.30
54202;DHT22;40108;53.152;5.844;2023-02-26T00:57:42;2.10;68.50
54202;DHT22;40108;53.152;5.844;2023-02-26T01:00:08;2.20;68.40
54202;DHT22;40108;53.152;5.844;2023-02-26T01:02:36;2.20;68.60
54202;DHT22;40108;53.152;5.844;2023-02-26T01:05:02;2.20;68.60
54202;DHT22;40108;53.152;5.844;2023-02-26T01:07:30;2.20;68.70
54202;DHT22;40108;53.152;5.844;2023-02-26T01:10:02;2.20;68.90
54202;DHT22;40108;53.152;5.844;2023-02-26T01:12:27;2.20;69.30
54202;DHT22;40108;53.152;5.844;2023-02-26T01:14:53;2.20;69.60
54202;DHT22;40108;53.152;5.844;2023-02-26T01:17:27;2.20;69.70
54202;DHT22;40108;53.152;5.844;2023-02-26T01:20:02;2.20;69.50
54202;DHT22;40108;53.152;5.844;2023-02-26T01:22:47;2.20;69.60
54202;DHT22;40108;53.152;5.844;2023-02-26T01:25:19;2.20;69.80
54202;DHT22;40108;53.152;5.844;2023-02-26T01:27:46;2.20;70.20
54202;DHT22;40108;53.152;5.844;2023-02-26T01:30:12;2.20;70.40
54202;DHT22;40108;53.152;5.844;2023-02-26T01:32:45;2.20;70.80
54202;DHT22;40108;53.152;5.844;2023-02-26T01:35:21;2.20;71.00
54202;DHT22;40108;53.152;5.844;2023-02-26T01:38:03;2.10;71.00
54202;DHT22;40108;53.152;5.844;2023-02-26T01:40:35;2.10;71.30
54202;DHT22;40108;53.152;5.844;2023-02-26T01:43:22;2.10;71.60
54202;DHT22;40108;53.152;5.844;2023-02-26T01:48:52;2.00;72.00
54202;DHT22;40108;53.152;5.844;2023-02-26T01:51:49;2.00;72.10
54202;DHT22;40108;53.152;5.844;2023-02-26T01:54:18;2.00;72.20
54202;DHT22;40108;53.152;5.844;2023-02-26T01:56:47;2.00;71.90
54202;DHT22;40108;53.152;5.844;2023-02-26T01:59:15;1.90;72.10
54202;DHT22;40108;53.152;5.844;2023-02-26T02:01:42;2.00;72.20
54202;DHT22;40108;53.152;5.844;2023-02-26T02:04:13;1.90;72.30
54202;DHT22;40108;53.152;5.844;2023-02-26T02:06:40;1.90;72.40
54202;DHT22;40108;53.152;5.844;2023-02-26T02:09:08;1.80;72.50
54202;DHT22;40108;53.152;5.844;2023-02-26T02:11:36;1.80;72.40
54202;DHT22;40108;53.152;5.844;2023-02-26T02:16:52;1.70;72.30
54202;DHT22;40108;53.152;5.844;2023-02-26T02:20:02;1.70;72.00
54202;DHT22;40108;53.152;5.844;2023-02-26T02:29:01;1.70;72.30
54202;DHT22;40108;53.152;5.844;2023-02-26T02:34:15;1.80;72.60
54202;DHT22;40108;53.152;5.844;2023-02-26T02:36:46;1.80;72.50
54202;DHT22;40108;53.152;5.844;2023-02-26T02:39:22;1.80;72.50
54202;DHT22;40108;53.152;5.844;2023-02-26T02:41:54;1.80;72.30
54202;DHT22;40108;53.152;5.844;2023-02-26T02:44:23;1.80;72.50
54202;DHT22;40108;53.152;5.844;2023-02-26T02:46:52;1.90;72.20
54202;DHT22;40108;53.152;5.844;2023-02-26T02:49:33;1.90;72.30
54202;DHT22;40108;53.152;5.844;2023-02-26T02:52:07;1.90;72.60
54202;DHT22;40108;53.152;5.844;2023-02-26T02:54:48;1.90;72.70
54202;DHT22;40108;53.152;5.844;2023-02-26T02:57:20;1.90;72.80
54202;DHT22;40108;53.152;5.844;2023-02-26T02:59:56;1.90;72.80
54202;DHT22;40108;53.152;5.844;2023-02-26T03:04:52;1.90;72.90
54202;DHT22;40108;53.152;5.844;2023-02-26T03:07:18;1.80;72.90
54202;DHT22;40108;53.152;5.844;2023-02-26T03:09:44;1.80;72.80
54202;DHT22;40108;53.152;5.844;2023-02-26T03:12:10;1.80;73.20
54202;DHT22;40108;53.152;5.844;2023-02-26T03:14:36;1.70;73.20
54202;DHT22;40108;53.152;5.844;2023-02-26T03:17:08;1.70;73.20
54202;DHT22;40108;53.152;5.844;2023-02-26T03:25:25;1.50;73.60
54202;DHT22;40108;53.152;5.844;2023-02-26T03:31:17;1.40;73.90
54202;DHT22;40108;53.152;5.844;2023-02-26T03:36:04;1.40;74.30
54202;DHT22;40108;53.152;5.844;2023-02-26T03:38:48;1.30;74.50
54202;DHT22;40108;53.152;5.844;2023-02-26T03:41:28;1.20;74.60
54202;DHT22;40108;53.152;5.844;2023-02-26T03:44:02;1.20;74.70
54202;DHT22;40108;53.152;5.844;2023-02-26T03:46:33;1.20;74.80
54202;DHT22;40108;53.152;5.844;2023-02-26T03:49:06;1.20;74.90
54202;DHT22;40108;53.152;5.844;2023-02-26T03:51:35;1.20;74.90
54202;DHT22;40108;53.152;5.844;2023-02-26T03:54:09;1.10;75.00
54202;DHT22;40108;53.152;5.844;2023-02-26T03:56:44;1.20;75.20
54202;DHT22;40108;53.152;5.844;2023-02-26T03:59:11;1.20;75.30
54202;DHT22;40108;53.152;5.844;2023-02-26T04:02:03;1.20;75.40
54202;DHT22;40108;53.152;5.844;2023-02-26T04:04:44;1.20;75.60
54202;DHT22;40108;53.152;5.844;2023-02-26T04:07:12;1.20;75.70
54202;DHT22;40108;53.152;5.844;2023-02-26T04:09:47;1.20;75.80
54202;DHT22;40108;53.152;5.844;2023-02-26T04:12:13;1.20;76.00
54202;DHT22;40108;53.152;5.844;2023-02-26T04:14:39;1.10;76.20
54202;DHT22;40108;53.152;5.844;2023-02-26T04:17:05;1.10;76.40
54202;DHT22;40108;53.152;5.844;2023-02-26T04:19:31;1.10;76.50
54202;DHT22;40108;53.152;5.844;2023-02-26T04:21:57;1.00;76.70
54202;DHT22;40108;53.152;5.844;2023-02-26T04:24:23;1.00;76.90
54202;DHT22;40108;53.152;5.844;2023-02-26T04:26:48;0.90;76.60
54202;DHT22;40108;53.152;5.844;2023-02-26T04:29:14;0.90;76.80
54202;DHT22;40108;53.152;5.844;2023-02-26T04:31:40;0.90;76.80
54202;DHT22;40108;53.152;5.844;2023-02-26T04:34:06;0.90;76.70
54202;DHT22;40108;53.152;5.844;2023-02-26T04:36:32;0.90;76.60
54202;DHT22;40108;53.152;5.844;2023-02-26T04:38:57;0.90;76.60
54202;DHT22;40108;53.152;5.844;2023-02-26T04:41:23;0.90;76.50
54202;DHT22;40108;53.152;5.844;2023-02-26T04:43:49;0.90;76.50
54202;DHT22;40108;53.152;5.844;2023-02-26T04:46:15;0.80;76.50
54202;DHT22;40108;53.152;5.844;2023-02-26T04:48:40;0.80;76.50
54202;DHT22;40108;53.152;5.844;2023-02-26T04:51:09;0.80;76.10
54202;DHT22;40108;53.152;5.844;2023-02-26T04:53:35;0.90;76.20
54202;DHT22;40108;53.152;5.844;2023-02-26T04:56:00;0.90;76.10
54202;DHT22;40108;53.152;5.844;2023-02-26T04:58:26;0.90;75.50
54202;DHT22;40108;53.152;5.844;2023-02-26T05:00:52;1.00;75.70
54202;DHT22;40108;53.152;5.844;2023-02-26T05:03:19;1.00;75.50
54202;DHT22;40108;53.152;5.844;2023-02-26T05:05:45;1.00;75.50
54202;DHT22;40108;53.152;5.844;2023-02-26T05:08:11;1.00;75.60
54202;DHT22;40108;53.152;5.844;2023-02-26T05:10:37;1.00;75.60
54202;DHT22;40108;53.152;5.844;2023-02-26T05:13:03;1.00;75.30
54202;DHT22;40108;53.152;5.844;2023-02-26T05:15:28;1.00;75.50
54202;DHT22;40108;53.152;5.844;2023-02-26T05:17:54;1.00;75.50
54202;DHT22;40108;53.152;5.844;2023-02-26T05:20:20;0.90;75.70
54202;DHT22;40108;53.152;5.844;2023-02-26T05:22:46;0.90;75.90
54202;DHT22;40108;53.152;5.844;2023-02-26T05:25:12;0.80;75.90
54202;DHT22;40108;53.152;5.844;2023-02-26T05:27:39;0.80;76.00
54202;DHT22;40108;53.152;5.844;2023-02-26T05:30:05;0.80;76.20
54202;DHT22;40108;53.152;5.844;2023-02-26T05:32:31;0.80;76.30
54202;DHT22;40108;53.152;5.844;2023-02-26T05:34:57;0.80;76.50
54202;DHT22;40108;53.152;5.844;2023-02-26T05:37:23;0.70;76.60
54202;DHT22;40108;53.152;5.844;2023-02-26T05:39:48;0.70;76.60
54202;DHT22;40108;53.152;5.844;2023-02-26T05:42:15;0.70;76.90
54202;DHT22;40108;53.152;5.844;2023-02-26T05:44:40;0.60;77.10
54202;DHT22;40108;53.152;5.844;2023-02-26T05:47:06;0.60;77.20
54202;DHT22;40108;53.152;5.844;2023-02-26T05:49:32;0.50;77.10
54202;DHT22;40108;53.152;5.844;2023-02-26T05:51:57;0.50;77.30
54202;DHT22;40108;53.152;5.844;2023-02-26T05:54:23;0.50;77.50
54202;DHT22;40108;53.152;5.844;2023-02-26T05:56:49;0.40;77.70
54202;DHT22;40108;53.152;5.844;2023-02-26T05:59:15;0.40;77.80
54202;DHT22;40108;53.152;5.844;2023-02-26T06:01:41;0.30;78.00
54202;DHT22;40108;53.152;5.844;2023-02-26T06:04:07;0.30;78.10
54202;DHT22;40108;53.152;5.844;2023-02-26T06:06:33;0.20;78.20
54202;DHT22;40108;53.152;5.844;2023-02-26T06:09:00;0.20;78.20
54202;DHT22;40108;53.152;5.844;2023-02-26T06:11:27;0.20;78.60
54202;DHT22;40108;53.152;5.844;2023-02-26T06:13:53;0.20;78.70
54202;DHT22;40108;53.152;5.844;2023-02-26T06:16:19;0.20;79.00
54202;DHT22;40108;53.152;5.844;2023-02-26T06:18:46;0.20;79.10
54202;DHT22;40108;53.152;5.844;2023-02-26T06:21:11;0.20;79.20
54202;DHT22;40108;53.152;5.844;2023-02-26T06:23:37;0.10;79.20
54202;DHT22;40108;53.152;5.844;2023-02-26T06:26:03;0.10;79.40
54202;DHT22;40108;53.152;5.844;2023-02-26T06:28:29;0.10;79.30
54202;DHT22;40108;53.152;5.844;2023-02-26T06:30:55;0.10;79.20
54202;DHT22;40108;53.152;5.844;2023-02-26T06:33:20;0.10;79.30
54202;DHT22;40108;53.152;5.844;2023-02-26T06:35:47;0.00;79.40
54202;DHT22;40108;53.152;5.844;2023-02-26T06:38:13;0.00;79.50
54202;DHT22;40108;53.152;5.844;2023-02-26T06:40:39;0.00;79.90
54202;DHT22;40108;53.152;5.844;2023-02-26T06:43:04;0.00;80.10
54202;DHT22;40108;53.152;5.844;2023-02-26T06:45:30;0.00;80.20
54202;DHT22;40108;53.152;5.844;2023-02-26T06:47:56;0.00;80.10
54202;DHT22;40108;53.152;5.844;2023-02-26T06:50:21;0.00;80.30
54202;DHT22;40108;53.152;5.844;2023-02-26T06:52:47;0.00;80.40
54202;DHT22;40108;53.152;5.844;2023-02-26T06:55:13;0.00;80.60
54202;DHT22;40108;53.152;5.844;2023-02-26T06:57:39;0.00;80.80
54202;DHT22;40108;53.152;5.844;2023-02-26T07:00:06;0.00;80.70
54202;DHT22;40108;53.152;5.844;2023-02-26T07:02:32;0.00;80.70
54202;DHT22;40108;53.152;5.844;2023-02-26T07:04:58;0.10;80.50
54202;DHT22;40108;53.152;5.844;2023-02-26T07:07:24;0.20;80.40
54202;DHT22;40108;53.152;5.844;2023-02-26T07:09:50;0.20;80.40
54202;DHT22;40108;53.152;5.844;2023-02-26T07:12:16;0.30;80.40
54202;DHT22;40108;53.152;5.844;2023-02-26T07:14:41;0.30;80.10
54202;DHT22;40108;53.152;5.844;2023-02-26T07:17:08;0.40;80.10
54202;DHT22;40108;53.152;5.844;2023-02-26T07:19:33;0.40;79.80
54202;DHT22;40108;53.152;5.844;2023-02-26T07:21:59;0.50;79.60
54202;DHT22;40108;53.152;5.844;2023-02-26T07:24:25;0.60;79.60
54202;DHT22;40108;53.152;5.844;2023-02-26T07:26:51;0.60;79.70
54202;DHT22;40108;53.152;5.844;2023-02-26T07:29:17;0.60;79.70
54202;DHT22;40108;53.152;5.844;2023-02-26T07:31:43;0.70;79.70
54202;DHT22;40108;53.152;5.844;2023-02-26T07:34:09;0.70;79.80
54202;DHT22;40108;53.152;5.844;2023-02-26T07:36:34;0.70;79.80
54202;DHT22;40108;53.152;5.844;2023-02-26T07:39:01;0.70;80.00
54202;DHT22;40108;53.152;5.844;2023-02-26T07:41:26;0.70;80.00
54202;DHT22;40108;53.152;5.844;2023-02-26T07:43:52;0.80;79.90
54202;DHT22;40108;53.152;5.844;2023-02-26T07:46:18;0.80;80.00
54202;DHT22;40108;53.152;5.844;2023-02-26T07:48:44;0.80;79.90
54202;DHT22;40108;53.152;5.844;2023-02-26T07:51:10;0.90;79.90
54202;DHT22;40108;53.152;5.844;2023-02-26T07:53:36;1.00;79.80
54202;DHT22;40108;53.152;5.844;2023-02-26T07:56:02;1.00;79.70
54202;DHT22;40108;53.152;5.844;2023-02-26T07:58:28;1.10;79.90
54202;DHT22;40108;53.152;5.844;2023-02-26T08:00:53;1.20;79.80
54202;DHT22;40108;53.152;5.844;2023-02-26T08:03:20;1.20;79.90
54202;DHT22;40108;53.152;5.844;2023-02-26T08:05:46;1.30;80.10
54202;DHT22;40108;53.152;5.844;2023-02-26T08:08:11;1.50;80.10
54202;DHT22;40108;53.152;5.844;2023-02-26T08:10:37;1.60;80.10
54202;DHT22;40108;53.152;5.844;2023-02-26T08:13:06;1.70;79.60
54202;DHT22;40108;53.152;5.844;2023-02-26T08:15:32;1.90;79.50
54202;DHT22;40108;53.152;5.844;2023-02-26T08:17:58;2.10;79.00
54202;DHT22;40108;53.152;5.844;2023-02-26T08:20:23;2.20;78.70
54202;DHT22;40108;53.152;5.844;2023-02-26T08:22:49;2.50;78.70
54202;DHT22;40108;53.152;5.844;2023-02-26T08:25:15;2.70;78.30
54202;DHT22;40108;53.152;5.844;2023-02-26T08:27:41;3.00;78.00
54202;DHT22;40108;53.152;5.844;2023-02-26T08:30:08;3.20;77.40
54202;DHT22;40108;53.152;5.844;2023-02-26T08:32:34;3.50;76.90
54202;DHT22;40108;53.152;5.844;2023-02-26T08:35:00;3.80;75.70
54202;DHT22;40108;53.152;5.844;2023-02-26T08:37:25;4.10;76.00
54202;DHT22;40108;53.152;5.844;2023-02-26T08:39:52;4.40;73.00
54202;DHT22;40108;53.152;5.844;2023-02-26T08:42:18;4.60;73.10
54202;DHT22;40108;53.152;5.844;2023-02-26T08:44:45;4.80;72.20
54202;DHT22;40108;53.152;5.844;2023-02-26T08:47:11;5.10;72.30
54202;DHT22;40108;53.152;5.844;2023-02-26T08:49:37;5.40;72.50
54202;DHT22;40108;53.152;5.844;2023-02-26T08:52:03;5.70;72.10
54202;DHT22;40108;53.152;5.844;2023-02-26T08:54:29;5.80;70.10
54202;DHT22;40108;53.152;5.844;2023-02-26T08:56:55;6.10;71.10
54202;DHT22;40108;53.152;5.844;2023-02-26T08:59:23;6.20;67.70
54202;DHT22;40108;53.152;5.844;2023-02-26T09:01:48;6.40;66.80
54202;DHT22;40108;53.152;5.844;2023-02-26T09:04:14;6.60;67.30
54202;DHT22;40108;53.152;5.844;2023-02-26T09:06:40;6.70;66.60
54202;DHT22;40108;53.152;5.844;2023-02-26T09:09:06;6.90;66.70
54202;DHT22;40108;53.152;5.844;2023-02-26T09:11:32;6.90;64.30
54202;DHT22;40108;53.152;5.844;2023-02-26T09:13:58;7.00;65.90
54202;DHT22;40108;53.152;5.844;2023-02-26T09:16:24;6.90;65.30
54202;DHT22;40108;53.152;5.844;2023-02-26T09:18:50;7.00;62.80
54202;DHT22;40108;53.152;5.844;2023-02-26T09:21:16;7.00;60.40
54202;DHT22;40108;53.152;5.844;2023-02-26T09:23:42;7.10;60.40
54202;DHT22;40108;53.152;5.844;2023-02-26T09:26:07;7.10;59.60
54202;DHT22;40108;53.152;5.844;2023-02-26T09:28:34;7.10;58.50
54202;DHT22;40108;53.152;5.844;2023-02-26T09:31:00;6.80;59.00
54202;DHT22;40108;53.152;5.844;2023-02-26T09:33:26;6.60;59.20
54202;DHT22;40108;53.152;5.844;2023-02-26T09:35:52;6.50;60.70
54202;DHT22;40108;53.152;5.844;2023-02-26T09:38:18;6.30;61.60
54202;DHT22;40108;53.152;5.844;2023-02-26T09:45:53;6.00;64.10
54202;DHT22;40108;53.152;5.844;2023-02-26T09:48:22;5.90;63.50
54202;DHT22;40108;53.152;5.844;2023-02-26T09:50:55;5.80;63.00
54202;DHT22;40108;53.152;5.844;2023-02-26T09:53:27;5.70;63.50
54202;DHT22;40108;53.152;5.844;2023-02-26T09:56:02;5.60;64.10
54202;DHT22;40108;53.152;5.844;2023-02-26T09:58:32;5.60;64.40
54202;DHT22;40108;53.152;5.844;2023-02-26T10:11:50;5.20;65.10
54202;DHT22;40108;53.152;5.844;2023-02-26T10:14:23;5.20;64.70
54202;DHT22;40108;53.152;5.844;2023-02-26T10:16:58;5.20;64.50
54202;DHT22;40108;53.152;5.844;2023-02-26T10:19:29;5.10;64.50
54202;DHT22;40108;53.152;5.844;2023-02-26T10:22:02;5.10;64.40
54202;DHT22;40108;53.152;5.844;2023-02-26T10:24:50;5.10;64.70
54202;DHT22;40108;53.152;5.844;2023-02-26T10:27:34;5.10;65.60
54202;DHT22;40108;53.152;5.844;2023-02-26T10:30:35;5.10;65.60
54202;DHT22;40108;53.152;5.844;2023-02-26T10:33:32;5.20;66.20
54202;DHT22;40108;53.152;5.844;2023-02-26T10:36:22;5.40;65.90
54202;DHT22;40108;53.152;5.844;2023-02-26T10:38:54;5.80;66.50
54202;DHT22;40108;53.152;5.844;2023-02-26T10:41:24;6.30;66.90
54202;DHT22;40108;53.152;5.844;2023-02-26T10:44:11;6.80;62.40
54202;DHT22;40108;53.152;5.844;2023-02-26T10:51:46;8.20;59.40
54202;DHT22;40108;53.152;5.844;2023-02-26T10:54:28;8.70;58.00
54202;DHT22;40108;53.152;5.844;2023-02-26T10:56:55;9.10;59.00
54202;DHT22;40108;53.152;5.844;2023-02-26T10:59:22;9.20;52.50
54202;DHT22;40108;53.152;5.844;2023-02-26T11:01:51;9.20;52.20
54202;DHT22;40108;53.152;5.844;2023-02-26T11:04:20;9.10;52.80
54202;DHT22;40108;53.152;5.844;2023-02-26T11:07:00;8.70;51.60
54202;DHT22;40108;53.152;5.844;2023-02-26T11:09:37;8.20;52.60
54202;DHT22;40108;53.152;5.844;2023-02-26T11:12:05;7.80;52.80
54202;DHT22;40108;53.152;5.844;2023-02-26T11:14:32;7.50;55.40
54202;DHT22;40108;53.152;5.844;2023-02-26T11:17:02;7.20;56.40
54202;DHT22;40108;53.152;5.844;2023-02-26T11:19:38;6.90;57.40
54202;DHT22;40108;53.152;5.844;2023-02-26T11:22:05;6.60;58.40
54202;DHT22;40108;53.152;5.844;2023-02-26T11:24:37;6.40;59.40
54202;DHT22;40108;53.152;5.844;2023-02-26T11:27:12;6.40;60.40
54202;DHT22;40108;53.152;5.844;2023-02-26T11:29:53;6.30;60.50
54202;DHT22;40108;53.152;5.844;2023-02-26T11:32:31;6.70;61.70
54202;DHT22;40108;53.152;5.844;2023-02-26T11:34:57;7.40;61.90
54202;DHT22;40108;53.152;5.844;2023-02-26T11:37:30;7.60;58.00
54202;DHT22;40108;53.152;5.844;2023-02-26T11:40:06;7.30;56.70
54202;DHT22;40108;53.152;5.844;2023-02-26T11:42:43;7.50;58.60
54202;DHT22;40108;53.152;5.844;2023-02-26T11:45:13;8.10;55.60
54202;DHT22;40108;53.152;5.844;2023-02-26T11:47:41;8.10;55.60
54202;DHT22;40108;53.152;5.844;2023-02-26T11:50:14;8.40;56.70
54202;DHT22;40108;53.152;5.844;2023-02-26T11:52:43;9.00;54.90
54202;DHT22;40108;53.152;5.844;2023-02-26T11:55:37;9.40;52.90
54202;DHT22;40108;53.152;5.844;2023-02-26T11:58:18;9.90;51.70
54202;DHT22;40108;53.152;5.844;2023-02-26T12:00:45;10.10;49.20
54202;DHT22;40108;53.152;5.844;2023-02-26T12:03:23;10.50;48.40
54202;DHT22;40108;53.152;5.844;2023-02-26T12:05:50;10.70;46.80
54202;DHT22;40108;53.152;5.844;2023-02-26T12:08:34;10.60;48.30
54202;DHT22;40108;53.152;5.844;2023-02-26T12:14:27;10.20;49.40
54202;DHT22;40108;53.152;5.844;2023-02-26T12:17:12;9.40;50.80
54202;DHT22;40108;53.152;5.844;2023-02-26T12:56:23;10.20;51.20
54202;DHT22;40108;53.152;5.844;2023-02-26T13:02:56;10.10;47.40
54202;DHT22;40108;53.152;5.844;2023-02-26T13:05:29;10.10;49.10
54202;DHT22;40108;53.152;5.844;2023-02-26T13:08:14;9.80;49.30
54202;DHT22;40108;53.152;5.844;2023-02-26T13:10:56;9.50;47.50
54202;DHT22;40108;53.152;5.844;2023-02-26T13:13:35;9.30;49.70
54202;DHT22;40108;53.152;5.844;2023-02-26T13:18:57;9.30;51.30
54202;DHT22;40108;53.152;5.844;2023-02-26T13:21:33;9.10;51.20
54202;DHT22;40108;53.152;5.844;2023-02-26T13:24:04;8.70;52.10
54202;DHT22;40108;53.152;5.844;2023-02-26T13:26:32;8.20;53.10
54202;DHT22;40108;53.152;5.844;2023-02-26T13:29:16;8.00;54.80
54202;DHT22;40108;53.152;5.844;2023-02-26T13:31:48;7.90;54.70
54202;DHT22;40108;53.152;5.844;2023-02-26T13:34:22;7.70;54.10
54202;DHT22;40108;53.152;5.844;2023-02-26T13:36:50;7.70;56.70
54202;DHT22;40108;53.152;5.844;2023-02-26T13:44:51;7.40;57.40
54202;DHT22;40108;53.152;5.844;2023-02-26T13:48:08;7.20;57.80
54202;DHT22;40108;53.152;5.844;2023-02-26T13:59:01;6.70;59.70
54202;DHT22;40108;53.152;5.844;2023-02-26T14:01:35;6.90;60.60
54202;DHT22;40108;53.152;5.844;2023-02-26T14:07:03;6.80;59.60
54202;DHT22;40108;53.152;5.844;2023-02-26T14:18:01;6.40;61.00
54202;DHT22;40108;53.152;5.844;2023-02-26T14:20:29;6.30;61.50
54202;DHT22;40108;53.152;5.844;2023-02-26T14:23:33;6.20;61.30
54202;DHT22;40108;53.152;5.844;2023-02-26T14:26:05;6.20;60.30
54202;DHT22;40108;53.152;5.844;2023-02-26T14:28:53;6.00;60.70
54202;DHT22;40108;53.152;5.844;2023-02-26T14:31:22;5.90;61.30
54202;DHT22;40108;53.152;5.844;2023-02-26T14:34:05;5.90;61.90
54202;DHT22;40108;53.152;5.844;2023-02-26T14:36:38;6.00;62.30
54202;DHT22;40108;53.152;5.844;2023-02-26T14:39:09;6.00;62.10
54202;DHT22;40108;53.152;5.844;2023-02-26T14:41:39;6.00;61.80
54202;DHT22;40108;53.152;5.844;2023-02-26T14:44:18;6.00;61.70
54202;DHT22;40108;53.152;5.844;2023-02-26T14:46:46;5.90;62.50
54202;DHT22;40108;53.152;5.844;2023-02-26T14:49:40;5.80;62.10
54202;DHT22;40108;53.152;5.844;2023-02-26T14:52:25;5.70;63.00
54202;DHT22;40108;53.152;5.844;2023-02-26T14:55:12;5.70;62.90
54202;DHT22;40108;53.152;5.844;2023-02-26T14:57:58;5.60;63.10
54202;DHT22;40108;53.152;5.844;2023-02-26T15:06:20;5.60;63.80
54202;DHT22;40108;53.152;5.844;2023-02-26T15:09:44;5.60;63.40
54202;DHT22;40108;53.152;5.844;2023-02-26T15:12:13;5.60;63.30
54202;DHT22;40108;53.152;5.844;2023-02-26T15:17:29;5.60;64.90
54202;DHT22;40108;53.152;5.844;2023-02-26T15:20:08;5.50;64.50
54202;DHT22;40108;53.152;5.844;2023-02-26T15:25:24;5.40;64.30
54202;DHT22;40108;53.152;5.844;2023-02-26T15:27:52;5.40;64.80
54202;DHT22;40108;53.152;5.844;2023-02-26T15:30:18;5.40;64.40
54202;DHT22;40108;53.152;5.844;2023-02-26T15:32:45;5.30;64.00
54202;DHT22;40108;53.152;5.844;2023-02-26T15:35:20;5.40;64.00
54202;DHT22;40108;53.152;5.844;2023-02-26T15:37:52;5.40;64.40
54202;DHT22;40108;53.152;5.844;2023-02-26T15:40:19;5.40;65.10
54202;DHT22;40108;53.152;5.844;2023-02-26T15:42:48;5.40;66.20
54202;DHT22;40108;53.152;5.844;2023-02-26T15:45:26;5.50;65.30
54202;DHT22;40108;53.152;5.844;2023-02-26T15:47:58;5.50;65.20
54202;DHT22;40108;53.152;5.844;2023-02-26T15:50:28;5.40;65.50
54202;DHT22;40108;53.152;5.844;2023-02-26T15:52:58;5.40;65.80
54202;DHT22;40108;53.152;5.844;2023-02-26T15:55:25;5.40;66.20
54202;DHT22;40108;53.152;5.844;2023-02-26T15:57:52;5.40;66.40
54202;DHT22;40108;53.152;5.844;2023-02-26T16:00:20;5.30;66.90
54202;DHT22;40108;53.152;5.844;2023-02-26T16:02:52;5.30;67.30
54202;DHT22;40108;53.152;5.844;2023-02-26T16:05:18;5.20;67.20
54202;DHT22;40108;53.152;5.844;2023-02-26T16:07:44;5.20;67.00
54202;DHT22;40108;53.152;5.844;2023-02-26T16:10:26;5.20;67.40
54202;DHT22;40108;53.152;5.844;2023-02-26T16:12:53;5.10;68.10
54202;DHT22;40108;53.152;5.844;2023-02-26T16:15:30;5.00;68.60
54202;DHT22;40108;53.152;5.844;2023-02-26T16:17:56;5.00;69.10
54202;DHT22;40108;53.152;5.844;2023-02-26T16:20:26;4.90;69.30
54202;DHT22;40108;53.152;5.844;2023-02-26T16:23:01;4.80;69.70
54202;DHT22;40108;53.152;5.844;2023-02-26T16:25:36;4.80;69.70
54202;DHT22;40108;53.152;5.844;2023-02-26T16:28:15;4.70;70.30
54202;DHT22;40108;53.152;5.844;2023-02-26T16:30:46;4.70;70.50
54202;DHT22;40108;53.152;5.844;2023-02-26T16:33:15;4.70;70.70
54202;DHT22;40108;53.152;5.844;2023-02-26T16:35:52;4.60;70.90
54202;DHT22;40108;53.152;5.844;2023-02-26T16:38:29;4.60;71.30
54202;DHT22;40108;53.152;5.844;2023-02-26T16:41:04;4.50;71.50
54202;DHT22;40108;53.152;5.844;2023-02-26T16:46:02;4.40;72.10
54202;DHT22;40108;53.152;5.844;2023-02-26T16:48:38;4.30;72.20
54202;DHT22;40108;53.152;5.844;2023-02-26T16:51:09;4.30;72.60
54202;DHT22;40108;53.152;5.844;2023-02-26T16:53:44;4.20;72.60
54202;DHT22;40108;53.152;5.844;2023-02-26T16:56:16;4.20;73.10
54202;DHT22;40108;53.152;5.844;2023-02-26T16:58:49;4.10;73.20
54202;DHT22;40108;53.152;5.844;2023-02-26T17:01:17;4.10;73.40
54202;DHT22;40108;53.152;5.844;2023-02-26T17:03:54;4.00;73.70
54202;DHT22;40108;53.152;5.844;2023-02-26T17:06:23;3.90;73.90
54202;DHT22;40108;53.152;5.844;2023-02-26T17:09:00;3.90;73.70
54202;DHT22;40108;53.152;5.844;2023-02-26T17:11:29;3.80;74.10
54202;DHT22;40108;53.152;5.844;2023-02-26T17:14:38;3.80;74.40
54202;DHT22;40108;53.152;5.844;2023-02-26T17:17:05;3.70;74.40
54202;DHT22;40108;53.152;5.844;2023-02-26T17:19:31;3.70;74.50
54202;DHT22;40108;53.152;5.844;2023-02-26T17:21:58;3.60;74.50
54202;DHT22;40108;53.152;5.844;2023-02-26T17:24:31;3.50;74.70
54202;DHT22;40108;53.152;5.844;2023-02-26T17:26:59;3.50;75.00
54202;DHT22;40108;53.152;5.844;2023-02-26T17:29:43;3.40;74.90
54202;DHT22;40108;53.152;5.844;2023-02-26T17:32:22;3.40;75.10
54202;DHT22;40108;53.152;5.844;2023-02-26T17:34:49;3.30;75.10
54202;DHT22;40108;53.152;5.844;2023-02-26T17:37:16;3.20;75.20
54202;DHT22;40108;53.152;5.844;2023-02-26T17:39:42;3.20;75.40
54202;DHT22;40108;53.152;5.844;2023-02-26T17:42:18;3.20;75.50
54202;DHT22;40108;53.152;5.844;2023-02-26T17:44:46;3.10;75.80
54202;DHT22;40108;53.152;5.844;2023-02-26T17:47:15;3.10;75.80
54202;DHT22;40108;53.152;5.844;2023-02-26T17:49:41;3.10;75.80
54202;DHT22;40108;53.152;5.844;2023-02-26T17:52:07;3.10;75.90
54202;DHT22;40108;53.152;5.844;2023-02-26T17:54:32;3.00;76.00
54202;DHT22;40108;53.152;5.844;2023-02-26T17:56:58;3.00;75.90
54202;DHT22;40108;53.152;5.844;2023-02-26T17:59:24;3.00;76.20
54202;DHT22;40108;53.152;5.844;2023-02-26T18:01:51;2.90;76.30
54202;DHT22;40108;53.152;5.844;2023-02-26T18:04:18;2.90;76.50
54202;DHT22;40108;53.152;5.844;2023-02-26T18:06:43;2.80;76.60
54202;DHT22;40108;53.152;5.844;2023-02-26T18:09:11;2.80;77.00
54202;DHT22;40108;53.152;5.844;2023-02-26T18:11:37;2.80;77.10
54202;DHT22;40108;53.152;5.844;2023-02-26T18:14:04;2.70;77.60
54202;DHT22;40108;53.152;5.844;2023-02-26T18:16:33;2.70;77.10
54202;DHT22;40108;53.152;5.844;2023-02-26T18:18:59;2.70;77.40
54202;DHT22;40108;53.152;5.844;2023-02-26T18:21:26;2.70;77.70
54202;DHT22;40108;53.152;5.844;2023-02-26T18:23:52;2.70;77.70
54202;DHT22;40108;53.152;5.844;2023-02-26T18:26:22;2.70;77.80
54202;DHT22;40108;53.152;5.844;2023-02-26T18:28:49;2.70;78.00
54202;DHT22;40108;53.152;5.844;2023-02-26T18:31:16;2.70;78.40
54202;DHT22;40108;53.152;5.844;2023-02-26T18:33:42;2.70;78.10